Weather at Culbokie Airstrip

Public forecast

Using degrees Celsius for public forecast. Weather courtesy of forecast.io.

Closest aviation weather report (METAR) to Culbokie Airstrip

Closest report is Inverness Airport, 9.1 nm (16.8 km) ESE. Retrieved 2021/07/28 01:20 UTC (21 minutes ago):

EGPE 280120Z AUTO 24004KT 9999 -RA FEW013/// BKN037/// OVC044/// 14/14 Q1003

Closest aviation forecast (TAF) to Culbokie Airstrip

Forecast is more than 12 hours old.

Closest forecast is RAF Kinloss, 24.6 nm (45.5 km) E. Retrieved 2020/10/16 06:00 UTC (9 months ago):

TAF TAF EGQK 160658Z 1606/1624 CNL